地図

経路データ

SID SEASON NUMBER BASIN SUBBASIN NAME ISO_TIME NATURE LAT LON WMO_WIND WMO_PRES WMO_AGENCY TRACK_TYPE DIST2LAND LANDFALL IFLAG USA_AGENCY USA_ATCF_ID USA_LAT USA_LON USA_RECORD USA_STATUS USA_WIND USA_PRES USA_SSHS USA_R34_NE USA_R34_SE USA_R34_SW USA_R34_NW USA_R50_NE USA_R50_SE USA_R50_SW USA_R50_NW USA_R64_NE USA_R64_SE USA_R64_SW USA_R64_NW USA_POCI USA_ROCI USA_RMW USA_EYE TOKYO_LAT TOKYO_LON TOKYO_GRADE TOKYO_WIND TOKYO_PRES TOKYO_R50_DIR TOKYO_R50_LONG TOKYO_R50_SHORT TOKYO_R30_DIR TOKYO_R30_LONG TOKYO_R30_SHORT TOKYO_LAND CMA_LAT CMA_LON CMA_CAT CMA_WIND CMA_PRES HKO_LAT HKO_LON HKO_CAT HKO_WIND HKO_PRES NEWDELHI_LAT NEWDELHI_LON NEWDELHI_GRADE NEWDELHI_WIND NEWDELHI_PRES NEWDELHI_CI NEWDELHI_DP NEWDELHI_POCI REUNION_LAT REUNION_LON REUNION_TYPE REUNION_WIND REUNION_PRES REUNION_TNUM REUNION_CI REUNION_RMW REUNION_R34_NE REUNION_R34_SE REUNION_R34_SW REUNION_R34_NW REUNION_R50_NE REUNION_R50_SE REUNION_R50_SW REUNION_R50_NW REUNION_R64_NE REUNION_R64_SE REUNION_R64_SW REUNION_R64_NW BOM_LAT BOM_LON BOM_TYPE BOM_WIND BOM_PRES BOM_TNUM BOM_CI BOM_RMW BOM_R34_NE BOM_R34_SE BOM_R34_SW BOM_R34_NW BOM_R50_NE BOM_R50_SE BOM_R50_SW BOM_R50_NW BOM_R64_NE BOM_R64_SE BOM_R64_SW BOM_R64_NW BOM_ROCI BOM_POCI BOM_EYE BOM_POS_METHOD BOM_PRES_METHOD NADI_LAT NADI_LON NADI_CAT NADI_WIND NADI_PRES WELLINGTON_LAT WELLINGTON_LON WELLINGTON_WIND WELLINGTON_PRES DS824_LAT DS824_LON DS824_STAGE DS824_WIND DS824_PRES TD9636_LAT TD9636_LON TD9636_STAGE TD9636_WIND TD9636_PRES TD9635_LAT TD9635_LON TD9635_WIND TD9635_PRES TD9635_ROCI NEUMANN_LAT NEUMANN_LON NEUMANN_CLASS NEUMANN_WIND NEUMANN_PRES MLC_LAT MLC_LON MLC_CLASS MLC_WIND MLC_PRES USA_GUST BOM_GUST BOM_GUST_PER REUNION_GUST REUNION_GUST_PER USA_SEAHGT USA_SEARAD_NE USA_SEARAD_SE USA_SEARAD_SW USA_SEARAD_NW STORM_SPEED STORM_DIR
1940122S08074 1940 22 SI MM NOT_NAMED 1940-04-30 18:00:00 NR -8.20000 74.0000 main 1738 1738 __________O___ -1 -8.20000 74.0000 7 6 254
1940122S08074 1940 22 SI MM NOT_NAMED 1940-04-30 21:00:00 NR -8.28458 73.7002 main 1761 1761 __________P___ -1 -8.28458 73.7002 7 6 254
1940122S08074 1940 22 SI MM NOT_NAMED 1940-05-01 00:00:00 NR -8.36524 73.4002 main 1786 1786 __________P___ -1 -8.36524 73.4002 7 6 255
1940122S08074 1940 22 SI MM NOT_NAMED 1940-05-01 03:00:00 NR -8.43828 73.1001 main 1800 1800 __________P___ -1 -8.43828 73.1001 7 6 257
1940122S08074 1940 22 SI MM NOT_NAMED 1940-05-01 06:00:00 NR -8.50000 72.8000 main 1825 1825 __________O___ -1 -8.50000 72.8000 7 6 259
1940122S08074 1940 22 SI MM NOT_NAMED 1940-05-01 09:00:00 NR -8.54891 72.4983 main 1841 1841 __________P___ -1 -8.54891 72.4983 7 6 261
1940122S08074 1940 22 SI MM NOT_NAMED 1940-05-01 12:00:00 NR -8.59226 72.1873 main 1866 1866 __________P___ -1 -8.59226 72.1873 7 6 262
1940122S08074 1940 22 SI MM NOT_NAMED 1940-05-01 15:00:00 NR -8.63949 71.8577 main 1882 1882 __________P___ -1 -8.63949 71.8577 7 7 261
1940122S08074 1940 22 SI MM NOT_NAMED 1940-05-01 18:00:00 NR -8.70000 71.5000 main 1914 1914 __________O___ -1 -8.70000 71.5000 7 8 259
1940122S08074 1940 22 SI MM NOT_NAMED 1940-05-01 21:00:00 NR -8.79390 71.0836 main 1917 1877 __________P___ -1 -8.79390 71.0836 7 9 257
1940122S08074 1940 22 SI MM NOT_NAMED 1940-05-02 00:00:00 NR -8.90023 70.6427 main 1869 1829 __________P___ -1 -8.90023 70.6427 7 9 256
1940122S08074 1940 22 SI MM NOT_NAMED 1940-05-02 03:00:00 NR -9.00641 70.2054 main 1829 1790 __________P___ -1 -9.00641 70.2054 7 9 257
1940122S08074 1940 22 SI MM NOT_NAMED 1940-05-02 06:00:00 NR -9.10000 69.8000 main 1790 1759 __________O___ -1 -9.10000 69.8000 7 8 258
1940122S08074 1940 22 SI MM NOT_NAMED 1940-05-02 09:00:00 NR -9.16011 69.4558 main 1759 1736 __________P___ -1 -9.16011 69.4558 7 7 261
1940122S08074 1940 22 SI MM NOT_NAMED 1940-05-02 12:00:00 NR -9.20726 69.1474 main 1728 1713 __________P___ -1 -9.20726 69.1474 7 6 261
1940122S08074 1940 22 SI MM NOT_NAMED 1940-05-02 15:00:00 NR -9.25078 68.8652 main 1705 1682 __________P___ -1 -9.25078 68.8652 7 5 260
1940122S08074 1940 22 SI MM NOT_NAMED 1940-05-02 18:00:00 NR -9.30000 68.6000 main 1682 1659 __________O___ -1 -9.30000 68.6000 7 5 257
1940122S08074 1940 22 SI MM NOT_NAMED 1940-05-02 21:00:00 NR -9.36766 68.3437 main 1652 1637 __________P___ -1 -9.36766 68.3437 7 5 254
1940122S08074 1940 22 SI MM NOT_NAMED 1940-05-03 00:00:00 NR -9.44230 68.1000 main 1637 1614 __________P___ -1 -9.44230 68.1000 7 5 252
1940122S08074 1940 22 SI MM NOT_NAMED 1940-05-03 03:00:00 NR -9.52079 67.8562 main 1614 1584 __________P___ -1 -9.52079 67.8562 7 5 252
1940122S08074 1940 22 SI MM NOT_NAMED 1940-05-03 06:00:00 NR -9.60000 67.6000 main 1584 1554 __________O___ -1 -9.60000 67.6000 7 6 254
1940122S08074 1940 22 SI MM NOT_NAMED 1940-05-03 09:00:00 NR -9.67498 67.3143 main 1554 1533 __________P___ -1 -9.67498 67.3143 7 6 255
1940122S08074 1940 22 SI MM NOT_NAMED 1940-05-03 12:00:00 NR -9.74997 67.0150 main 1533 1503 __________P___ -1 -9.74997 67.0150 7 6 256
1940122S08074 1940 22 SI MM NOT_NAMED 1940-05-03 15:00:00 NR -9.82497 66.7081 main 1503 1474 __________P___ -1 -9.82497 66.7081 7 6 256
1940122S08074 1940 22 SI MM NOT_NAMED 1940-05-03 18:00:00 NR -9.90000 66.4000 main 1474 1445 __________O___ -1 -9.90000 66.4000 7 6 256
1940122S08074 1940 22 SI MM NOT_NAMED 1940-05-03 21:00:00 NR -9.97903 66.0919 main 1445 1416 __________P___ -1 -9.97903 66.0919 7 6 255
1940122S08074 1940 22 SI MM NOT_NAMED 1940-05-04 00:00:00 NR -10.0575 65.7850 main 1416 1397 __________P___ -1 -10.0575 65.7850 7 6 256
1940122S08074 1940 22 SI MM NOT_NAMED 1940-05-04 03:00:00 NR -10.1322 65.4856 main 1397 1369 __________P___ -1 -10.1322 65.4856 7 6 256
1940122S08074 1940 22 SI MM NOT_NAMED 1940-05-04 06:00:00 NR -10.2000 65.2000 main 1369 1341 __________O___ -1 -10.2000 65.2000 7 6 257
1940122S08074 1940 22 SI MM NOT_NAMED 1940-05-04 09:00:00 NR -10.2530 64.9315 main 1341 1328 __________P___ -1 -10.2530 64.9315 7 5 259
1940122S08074 1940 22 SI MM NOT_NAMED 1940-05-04 12:00:00 NR -10.2999 64.6774 main 1328 1311 __________P___ -1 -10.2999 64.6774 7 5 259
1940122S08074 1940 22 SI MM NOT_NAMED 1940-05-04 15:00:00 NR -10.3468 64.4346 main 1311 1289 __________P___ -1 -10.3468 64.4346 7 5 258
1940122S08074 1940 22 SI MM NOT_NAMED 1940-05-04 18:00:00 NR -10.4000 64.2000 main 1289 1268 __________O___ -1 -10.4000 64.2000 7 5 254
1940122S08074 1940 22 SI MM NOT_NAMED 1940-05-04 21:00:00 NR -10.4717 63.9800 main 1268 1257 __________P___ -1 -10.4717 63.9800 7 5 251
1940122S08074 1940 22 SI MM NOT_NAMED 1940-05-05 00:00:00 NR -10.5498 63.7650 main 1257 1236 __________P___ -1 -10.5498 63.7650 7 5 250
1940122S08074 1940 22 SI MM NOT_NAMED 1940-05-05 03:00:00 NR -10.6280 63.5425 main 1231 1211 __________P___ -1 -10.6280 63.5425 7 5 252
1940122S08074 1940 22 SI MM NOT_NAMED 1940-05-05 06:00:00 NR -10.7000 63.3000 main 1211 1185 __________O___ -1 -10.7000 63.3000 7 5 256
1940122S08074 1940 22 SI MM NOT_NAMED 1940-05-05 09:00:00 NR -10.7613 63.0094 main 1185 1170 __________P___ -1 -10.7613 63.0094 7 6 259
1940122S08074 1940 22 SI MM NOT_NAMED 1940-05-05 12:00:00 NR -10.8151 62.7000 main 1170 1146 __________P___ -1 -10.8151 62.7000 7 6 261
1940122S08074 1940 22 SI MM NOT_NAMED 1940-05-05 15:00:00 NR -10.8613 62.3906 main 1146 1132 __________P___ -1 -10.8613 62.3906 7 6 262
1940122S08074 1940 22 SI MM NOT_NAMED 1940-05-05 18:00:00 NR -10.9000 62.1000 main 1132 1123 __________O___ -1 -10.9000 62.1000 7 5 263
1940122S08074 1940 22 SI MM NOT_NAMED 1940-05-05 21:00:00 NR -10.9279 61.8615 main 1123 1115 __________P___ -1 -10.9279 61.8615 7 5 264
1940122S08074 1940 22 SI MM NOT_NAMED 1940-05-06 00:00:00 NR -10.9498 61.6424 main 1111 1092 __________P___ -1 -10.9498 61.6424 7 4 264
1940122S08074 1940 22 SI MM NOT_NAMED 1940-05-06 03:00:00 NR -10.9717 61.4271 main 1092 1085 __________P___ -1 -10.9717 61.4271 7 4 263
1940122S08074 1940 22 SI MM NOT_NAMED 1940-05-06 06:00:00 NR -11.0000 61.2000 main 1085 1074 __________O___ -1 -11.0000 61.2000 7 5 261
1940122S08074 1940 22 SI MM NOT_NAMED 1940-05-06 09:00:00 NR -11.0469 60.9272 main 1074 1057 __________P___ -1 -11.0469 60.9272 7 6 260
1940122S08074 1940 22 SI MM NOT_NAMED 1940-05-06 12:00:00 NR -11.1001 60.6426 main 1054 1037 __________P___ -1 -11.1001 60.6426 7 6 259
1940122S08074 1940 22 SI MM NOT_NAMED 1940-05-06 15:00:00 NR -11.1532 60.3616 main 1037 1028 __________P___ -1 -11.1532 60.3616 7 5 259
1940122S08074 1940 22 SI MM NOT_NAMED 1940-05-06 18:00:00 NR -11.2000 60.1000 main 1028 1023 __________O___ -1 -11.2000 60.1000 7 5 260
1940122S08074 1940 22 SI MM NOT_NAMED 1940-05-06 21:00:00 NR -11.2320 59.8906 main 1023 1007 __________P___ -1 -11.2320 59.8906 7 4 262
1940122S08074 1940 22 SI MM NOT_NAMED 1940-05-07 00:00:00 NR -11.2572 59.6999 main 1007 1003 __________P___ -1 -11.2572 59.6999 7 4 263
1940122S08074 1940 22 SI MM NOT_NAMED 1940-05-07 03:00:00 NR -11.2789 59.5093 main 1003 999 __________P___ -1 -11.2789 59.5093 7 4 264
1940122S08074 1940 22 SI MM NOT_NAMED 1940-05-07 06:00:00 NR -11.3000 59.3000 main 999 996 __________O___ -1 -11.3000 59.3000 7 5 265
1940122S08074 1940 22 SI MM NOT_NAMED 1940-05-07 09:00:00 NR -11.3210 59.0384 main 994 984 __________P___ -1 -11.3210 59.0384 7 5 265
1940122S08074 1940 22 SI MM NOT_NAMED 1940-05-07 12:00:00 NR -11.3426 58.7575 main 984 950 __________P___ -1 -11.3426 58.7575 7 6 265
1940122S08074 1940 22 SI MM NOT_NAMED 1940-05-07 15:00:00 NR -11.3679 58.4728 main 950 918 __________P___ -1 -11.3679 58.4728 7 6 264
1940122S08074 1940 22 SI MM NOT_NAMED 1940-05-07 18:00:00 NR -11.4000 58.2000 main 918 897 __________O___ -1 -11.4000 58.2000 7 5 262
1940122S08074 1940 22 SI MM NOT_NAMED 1940-05-07 21:00:00 NR -11.4386 57.9728 main 897 873 __________P___ -1 -11.4386 57.9728 7 4 259
1940122S08074 1940 22 SI MM NOT_NAMED 1940-05-08 00:00:00 NR -11.4847 57.7574 main 873 852 __________P___ -1 -11.4847 57.7574 7 4 257
1940122S08074 1940 22 SI MM NOT_NAMED 1940-05-08 03:00:00 NR -11.5386 57.5384 main 842 818 __________P___ -1 -11.5386 57.5384 7 5 256
1940122S08074 1940 22 SI MM NOT_NAMED 1940-05-08 06:00:00 NR -11.6000 57.3000 main 818 783 __________O___ -1 -11.6000 57.3000 7 5 256
1940122S08074 1940 22 SI MM NOT_NAMED 1940-05-08 09:00:00 NR -11.6679 57.0054 main 783 752 __________P___ -1 -11.6679 57.0054 7 6 257
1940122S08074 1940 22 SI MM NOT_NAMED 1940-05-08 12:00:00 NR -11.7427 56.6926 main 752 717 __________P___ -1 -11.7427 56.6926 7 6 256
1940122S08074 1940 22 SI MM NOT_NAMED 1940-05-08 15:00:00 NR -11.8211 56.3835 main 717 683 __________P___ -1 -11.8211 56.3835 7 6 255
1940122S08074 1940 22 SI MM NOT_NAMED 1940-05-08 18:00:00 NR -11.9000 56.1000 main 683 659 __________O___ -1 -11.9000 56.1000 7 5 253
1940122S08074 1940 22 SI MM NOT_NAMED 1940-05-08 21:00:00 NR -11.9771 55.8584 main 659 638 __________P___ -1 -11.9771 55.8584 7 5 251
1940122S08074 1940 22 SI MM NOT_NAMED 1940-05-09 00:00:00 NR -12.0524 55.6525 main 635 614 __________P___ -1 -12.0524 55.6525 7 4 248
1940122S08074 1940 22 SI MM NOT_NAMED 1940-05-09 03:00:00 NR -12.1265 55.4703 main 614 590 __________P___ -1 -12.1265 55.4703 7 4 247
1940122S08074 1940 22 SI MM NOT_NAMED 1940-05-09 06:00:00 NR -12.2000 55.3000 main 590 __________O___ -1 -12.2000 55.3000 7 4 246

IBTrACS Databaseについて

本データベースは、米国NOAAが公開する1842年以降の世界の熱帯低気圧のベストトラックデータアーカイブInternational Best Track Archive for Climate Stewardship (IBTrACS)を、ウェブで閲覧しやすい形式に変換したものです。

最終更新日:2021-11-26